Map

Track Data

SID SEASON NUMBER BASIN SUBBASIN NAME ISO_TIME NATURE LAT LON WMO_WIND WMO_PRES WMO_AGENCY TRACK_TYPE DIST2LAND LANDFALL IFLAG USA_AGENCY USA_ATCF_ID USA_LAT USA_LON USA_RECORD USA_STATUS USA_WIND USA_PRES USA_SSHS USA_R34_NE USA_R34_SE USA_R34_SW USA_R34_NW USA_R50_NE USA_R50_SE USA_R50_SW USA_R50_NW USA_R64_NE USA_R64_SE USA_R64_SW USA_R64_NW USA_POCI USA_ROCI USA_RMW USA_EYE TOKYO_LAT TOKYO_LON TOKYO_GRADE TOKYO_WIND TOKYO_PRES TOKYO_R50_DIR TOKYO_R50_LONG TOKYO_R50_SHORT TOKYO_R30_DIR TOKYO_R30_LONG TOKYO_R30_SHORT TOKYO_LAND CMA_LAT CMA_LON CMA_CAT CMA_WIND CMA_PRES HKO_LAT HKO_LON HKO_CAT HKO_WIND HKO_PRES NEWDELHI_LAT NEWDELHI_LON NEWDELHI_GRADE NEWDELHI_WIND NEWDELHI_PRES NEWDELHI_CI NEWDELHI_DP NEWDELHI_POCI REUNION_LAT REUNION_LON REUNION_TYPE REUNION_WIND REUNION_PRES REUNION_TNUM REUNION_CI REUNION_RMW REUNION_R34_NE REUNION_R34_SE REUNION_R34_SW REUNION_R34_NW REUNION_R50_NE REUNION_R50_SE REUNION_R50_SW REUNION_R50_NW REUNION_R64_NE REUNION_R64_SE REUNION_R64_SW REUNION_R64_NW BOM_LAT BOM_LON BOM_TYPE BOM_WIND BOM_PRES BOM_TNUM BOM_CI BOM_RMW BOM_R34_NE BOM_R34_SE BOM_R34_SW BOM_R34_NW BOM_R50_NE BOM_R50_SE BOM_R50_SW BOM_R50_NW BOM_R64_NE BOM_R64_SE BOM_R64_SW BOM_R64_NW BOM_ROCI BOM_POCI BOM_EYE BOM_POS_METHOD BOM_PRES_METHOD NADI_LAT NADI_LON NADI_CAT NADI_WIND NADI_PRES WELLINGTON_LAT WELLINGTON_LON WELLINGTON_WIND WELLINGTON_PRES DS824_LAT DS824_LON DS824_STAGE DS824_WIND DS824_PRES TD9636_LAT TD9636_LON TD9636_STAGE TD9636_WIND TD9636_PRES TD9635_LAT TD9635_LON TD9635_WIND TD9635_PRES TD9635_ROCI NEUMANN_LAT NEUMANN_LON NEUMANN_CLASS NEUMANN_WIND NEUMANN_PRES MLC_LAT MLC_LON MLC_CLASS MLC_WIND MLC_PRES USA_GUST BOM_GUST BOM_GUST_PER REUNION_GUST REUNION_GUST_PER USA_SEAHGT USA_SEARAD_NE USA_SEARAD_SE USA_SEARAD_SW USA_SEARAD_NW STORM_SPEED STORM_DIR
2021111S10049 2021 25 SI MM JOBO 2021-04-21 00:00:00 NR -10.0000 48.8000 PROVISIONAL 239 239 O_____________ tcvightals SI292021 -10.0000 48.8000 39 1000 0 11 30 25 1009 120 25 7 298
2021111S10049 2021 25 SI MM JOBO 2021-04-21 03:00:00 NR -9.82760 48.4749 PROVISIONAL 268 268 P_____________ SI292021 -9.82760 48.4749 46 998 0 25 32 35 1009 115 17 7 297
2021111S10049 2021 25 SI MM JOBO 2021-04-21 06:00:00 NR -9.70000 48.2000 PROVISIONAL 290 290 O_____________ tcvightals SI292021 -9.70000 48.2000 54 997 0 40 35 45 35 1010 110 10 5 290
2021111S10049 2021 25 SI MM JOBO 2021-04-21 09:00:00 NR -9.65493 48.0000 PROVISIONAL 299 299 P_____________ SI292021 -9.65493 48.0000 57 994 0 40 37 47 37 1009 110 10 4 270
2021111S10049 2021 25 SI MM JOBO 2021-04-21 12:00:00 NR -9.70000 47.8000 PROVISIONAL 309 305 O_____________ tcvightals SI292021 -9.70000 47.8000 60 992 0 40 40 50 40 1009 110 10 5 251
2021111S10049 2021 25 SI MM JOBO 2021-04-21 15:00:00 NR -9.81999 47.5225 PROVISIONAL 317 308 P_____________ SI292021 -9.81999 47.5225 55 995 0 40 40 42 37 1010 95 10 7 243
2021111S10049 2021 25 SI MM JOBO 2021-04-21 18:00:00 NR -10.0000 47.2000 PROVISIONAL 320 320 O_____________ tcvightals SI292021 -10.0000 47.2000 51 999 0 40 40 35 35 1011 80 10 8 236
2021111S10049 2021 25 SI MM JOBO 2021-04-21 21:00:00 NR -10.2524 46.8727 PROVISIONAL 320 320 P_____________ SI292021 -10.2524 46.8727 48 999 0 40 47 37 45 1009 77 10 8 240
2021111S10049 2021 25 SI MM JOBO 2021-04-22 00:00:00 NR -10.4000 46.5000 PROVISIONAL 343 343 O_____________ tcvightals SI292021 -10.4000 46.5000 45 999 0 40 55 40 55 1008 75 10 8 271
2021111S10049 2021 25 SI MM JOBO 2021-04-22 03:00:00 NR -10.2376 46.0347 PROVISIONAL 399 399 P_____________ SI292021 -10.2376 46.0347 48 998 0 40 57 47 50 1008 92 15 10 294
2021111S10049 2021 25 SI MM JOBO 2021-04-22 06:00:00 NR -10.0000 45.6000 PROVISIONAL 447 447 O_____________ tcvightals SI292021 -10.0000 45.6000 51 998 0 40 60 55 45 1009 110 20 8 292
2021111S10049 2021 25 SI MM JOBO 2021-04-22 09:00:00 NR -9.94993 45.2976 PROVISIONAL 480 480 P_____________ SI292021 -9.94993 45.2976 48 999 0 40 65 52 40 1009 110 20 5 281
2021111S10049 2021 25 SI MM JOBO 2021-04-22 12:00:00 NR -9.90000 45.1000 PROVISIONAL 497 492 O_____________ tcvightals SI292021 -9.90000 45.1000 45 1000 0 40 70 50 35 1009 110 20 3 313
2021111S10049 2021 25 SI MM JOBO 2021-04-22 15:00:00 NR -9.71484 45.0376 PROVISIONAL 494 489 P_____________ SI292021 -9.71484 45.0376 45 1001 0 50 52 60 30 1010 97 20 4 334
2021111S10049 2021 25 SI MM JOBO 2021-04-22 18:00:00 NR -9.50000 44.9000 PROVISIONAL 489 444 O_____________ tcvightals SI292021 -9.50000 44.9000 45 1003 0 60 35 70 25 1012 85 20 7 301
2021111S10049 2021 25 SI MM JOBO 2021-04-22 21:00:00 NR -9.33528 44.4074 PROVISIONAL 444 398 P_____________ SI292021 -9.33528 44.4074 45 1002 0 60 35 70 25 1011 85 20 10 287
2021111S10049 2021 25 SI MM JOBO 2021-04-23 00:00:00 NR -9.20000 43.9000 PROVISIONAL 398 384 O_____________ tcvightals SI292021 -9.20000 43.9000 45 1001 0 60 35 70 25 1010 85 20 7 287
2021111S10049 2021 25 SI MM JOBO 2021-04-23 03:00:00 NR -9.11488 43.6901 PROVISIONAL 384 374 P_____________ SI292021 -9.11488 43.6901 45 1001 0 57 42 65 32 1010 90 20 4 304
2021111S10049 2021 25 SI MM JOBO 2021-04-23 06:00:00 NR -9.00000 43.6000 PROVISIONAL 380 380 O_____________ tcvightals SI292021 -9.00000 43.6000 45 1001 0 55 50 60 40 1010 95 20 4 340
2021111S10049 2021 25 SI MM JOBO 2021-04-23 09:00:00 NR -8.76485 43.5601 PROVISIONAL 391 389 P_____________ SI292021 -8.76485 43.5601 42 1001 0 50 55 55 35 1009 92 20 5 338
2021111S10049 2021 25 SI MM JOBO 2021-04-23 12:00:00 NR -8.50000 43.4000 PROVISIONAL 393 368 O_____________ tcvightals SI292021 -8.50000 43.4000 39 1002 0 45 60 50 30 1009 90 20 8 306
2021111S10049 2021 25 SI MM JOBO 2021-04-23 15:00:00 NR -8.27771 42.8949 PROVISIONAL 368 310 P_____________ SI292021 -8.27771 42.8949 37 1003 0 37 55 47 27 1009 90 20 12 290
2021111S10049 2021 25 SI MM JOBO 2021-04-23 18:00:00 NR -8.10000 42.3000 PROVISIONAL 310 272 O_____________ tcvightals SI292021 -8.10000 42.3000 35 1005 0 30 50 45 25 1009 90 20 11 287
2021111S10049 2021 25 SI MM JOBO 2021-04-23 21:00:00 NR -7.96989 41.8776 PROVISIONAL 272 228 P_____________ SI292021 -7.96989 41.8776 35 1005 0 32 47 42 32 1009 90 20 8 284
2021111S10049 2021 25 SI MM JOBO 2021-04-24 00:00:00 NR -7.90000 41.5000 PROVISIONAL 228 187 O_____________ tcvightals SI292021 -7.90000 41.5000 35 1005 0 35 45 40 40 1009 90 20 8 276
2021111S10049 2021 25 SI MM JOBO 2021-04-24 03:00:00 NR -7.89242 41.1151 PROVISIONAL 187 143 P_____________ SI292021 -7.89242 41.1151 35 1005 0 45 40 1009 90 20 8 270
2021111S10049 2021 25 SI MM JOBO 2021-04-24 06:00:00 NR -7.90000 40.7000 PROVISIONAL 143 99 O_____________ tcvightals SI292021 -7.90000 40.7000 35 1005 0 45 40 1009 90 20 9 273
2021111S10049 2021 25 SI MM JOBO 2021-04-24 09:00:00 NR -7.84996 40.2225 PROVISIONAL 88 34 P_____________ SI292021 -7.84996 40.2225 35 1004 0 45 40 1008 82 20 10 276
2021111S10049 2021 25 SI MM JOBO 2021-04-24 12:00:00 NR -7.80000 39.7000 PROVISIONAL 34 0 O_____________ tcvightals SI292021 -7.80000 39.7000 35 1004 0 45 45 40 40 1008 75 20 11 273
2021111S10049 2021 25 SI MM JOBO 2021-04-24 15:00:00 NR -7.78764 39.1551 PROVISIONAL 0 0 P_____________ SI292021 -7.78764 39.1551 32 1004 -1 1008 75 22 11 270
2021111S10049 2021 25 SI MM JOBO 2021-04-24 18:00:00 NR -7.80000 38.6000 PROVISIONAL 0 O_____________ tcvightals SI292021 -7.80000 38.6000 29 1004 -1 1008 75 25 11 269

About IBTrACS Database

This database is a web-friendly format of International Best Track Archive for Climate Stewardship (IBTrACS), a global best track data archive curated by NOAA dating back to 1842.

Updated: 2021-05-04